createdAt,value
2022-11-25T00:01:31.261Z,5.79
2022-11-25T00:03:59.494Z,5.82
2022-11-25T00:06:35.126Z,5.80
2022-11-25T00:09:09.601Z,5.80
2022-11-25T00:11:39.521Z,5.82
2022-11-25T00:14:08.359Z,5.89
2022-11-25T00:16:35.509Z,5.88
2022-11-25T00:19:02.501Z,5.92
2022-11-25T00:21:33.508Z,5.98
2022-11-25T00:24:04.412Z,5.96
2022-11-25T00:26:32.778Z,5.97
2022-11-25T00:29:02.868Z,5.99
2022-11-25T00:31:34.053Z,6.01
2022-11-25T00:34:02.004Z,6.02
2022-11-25T00:36:29.960Z,6.00
2022-11-25T00:39:11.856Z,6.02
2022-11-25T00:41:57.841Z,6.03
2022-11-25T00:44:38.611Z,6.04
2022-11-25T00:47:18.953Z,6.06
2022-11-25T00:49:49.752Z,6.07
2022-11-25T00:52:20.510Z,6.05
2022-11-25T00:54:49.745Z,6.08
2022-11-25T00:57:19.477Z,6.09
2022-11-25T00:59:46.792Z,6.11
2022-11-25T01:02:18.080Z,6.09
2022-11-25T01:04:46.377Z,6.12
2022-11-25T01:07:16.680Z,6.09
2022-11-25T01:09:43.734Z,6.08
2022-11-25T01:12:10.714Z,6.08
2022-11-25T01:14:38.015Z,6.05
2022-11-25T01:17:05.495Z,6.02
2022-11-25T01:19:33.114Z,6.00
2022-11-25T01:22:00.249Z,5.96
2022-11-25T01:24:27.506Z,5.97
2022-11-25T01:26:55.981Z,5.98
2022-11-25T01:29:23.477Z,5.97
2022-11-25T01:31:56.760Z,5.94
2022-11-25T01:34:28.357Z,5.96
2022-11-25T01:36:57.535Z,5.92
2022-11-25T01:39:32.161Z,5.92
2022-11-25T01:42:00.565Z,5.87
2022-11-25T01:44:31.016Z,5.85
2022-11-25T01:47:00.836Z,5.81
2022-11-25T01:49:36.143Z,5.76
2022-11-25T01:52:17.484Z,5.74
2022-11-25T01:54:59.403Z,5.76
2022-11-25T01:57:49.111Z,5.78
2022-11-25T02:00:16.785Z,5.76
2022-11-25T02:02:50.735Z,5.81
2022-11-25T02:05:23.277Z,5.76
2022-11-25T02:07:53.041Z,5.80
2022-11-25T02:10:26.554Z,5.80
2022-11-25T02:12:53.966Z,5.80
2022-11-25T02:15:22.037Z,5.84
2022-11-25T02:17:49.619Z,5.81
2022-11-25T02:20:22.991Z,5.85
2022-11-25T02:23:11.240Z,5.87
2022-11-25T02:25:40.642Z,5.87
2022-11-25T02:28:17.054Z,5.89
2022-11-25T02:30:45.062Z,5.94
2022-11-25T02:33:13.938Z,5.95
2022-11-25T02:36:11.223Z,6.00
2022-11-25T02:38:53.012Z,6.03
2022-11-25T02:41:45.787Z,6.06
2022-11-25T02:44:12.919Z,6.07
2022-11-25T02:46:40.066Z,6.11
2022-11-25T02:49:09.242Z,6.14
2022-11-25T02:51:39.436Z,6.19
2022-11-25T02:54:08.607Z,6.20
2022-11-25T02:56:36.613Z,6.24
2022-11-25T02:59:04.976Z,6.23
2022-11-25T03:01:32.821Z,6.25
2022-11-25T03:04:00.204Z,6.27
2022-11-25T03:06:29.008Z,6.29
2022-11-25T03:08:57.298Z,6.28
2022-11-25T03:11:43.497Z,6.29
2022-11-25T03:14:10.673Z,6.27
2022-11-25T03:16:37.644Z,6.26
2022-11-25T03:19:05.353Z,6.25
2022-11-25T03:21:32.496Z,6.26
2022-11-25T03:23:59.671Z,6.26
2022-11-25T03:26:26.689Z,6.25
2022-11-25T03:28:53.742Z,6.29
2022-11-25T03:31:20.953Z,6.26
2022-11-25T03:33:48.436Z,6.27
2022-11-25T03:36:15.764Z,6.27
2022-11-25T03:38:42.700Z,6.25
2022-11-25T03:41:09.967Z,6.29
2022-11-25T03:43:38.034Z,6.32
2022-11-25T03:46:05.237Z,6.35
2022-11-25T03:48:32.684Z,6.39
2022-11-25T03:50:59.681Z,6.42
2022-11-25T03:53:28.220Z,6.43
2022-11-25T03:55:55.146Z,6.43
2022-11-25T03:58:25.228Z,6.42
2022-11-25T04:00:52.632Z,6.42
2022-11-25T04:03:19.965Z,6.43
2022-11-25T04:05:47.099Z,6.41
2022-11-25T04:08:14.157Z,6.37
2022-11-25T04:10:41.796Z,6.38
2022-11-25T04:13:11.573Z,6.37
2022-11-25T04:15:49.778Z,6.40
2022-11-25T04:18:19.206Z,6.39
2022-11-25T04:20:47.103Z,6.41
2022-11-25T04:23:14.698Z,6.39
2022-11-25T04:25:53.223Z,6.42
2022-11-25T04:28:29.733Z,6.41
2022-11-25T04:30:57.387Z,6.42
2022-11-25T04:33:24.414Z,6.42
2022-11-25T04:35:51.561Z,6.41
2022-11-25T04:38:20.608Z,6.43
2022-11-25T04:40:48.046Z,6.42
2022-11-25T04:43:19.425Z,6.47
2022-11-25T04:46:13.014Z,6.45
2022-11-25T04:48:39.902Z,6.51
2022-11-25T04:51:06.899Z,6.54
2022-11-25T04:53:34.024Z,6.58
2022-11-25T04:56:01.028Z,6.61
2022-11-25T04:58:49.751Z,6.61
2022-11-25T05:01:16.876Z,6.68
2022-11-25T05:03:55.919Z,6.72
2022-11-25T05:06:26.093Z,6.79
2022-11-25T05:08:53.716Z,6.77
2022-11-25T05:11:23.093Z,6.81
2022-11-25T05:13:51.085Z,6.83
2022-11-25T05:16:18.096Z,6.86
2022-11-25T05:18:45.637Z,6.86
2022-11-25T05:21:13.192Z,6.89
2022-11-25T05:23:42.345Z,6.86
2022-11-25T05:26:09.846Z,6.89
2022-11-25T05:28:41.308Z,6.91
2022-11-25T05:31:09.843Z,6.92
2022-11-25T05:33:37.771Z,6.93
2022-11-25T05:36:06.725Z,6.93
2022-11-25T05:38:45.974Z,6.98
2022-11-25T05:41:17.317Z,7.00
2022-11-25T05:43:47.166Z,6.99
2022-11-25T05:46:14.499Z,7.01
2022-11-25T05:48:47.474Z,7.02
2022-11-25T05:51:14.747Z,7.02
2022-11-25T05:53:41.646Z,7.04
2022-11-25T05:56:10.644Z,7.00
2022-11-25T05:59:02.333Z,7.09
2022-11-25T06:01:42.168Z,7.08
2022-11-25T06:04:10.146Z,7.11
2022-11-25T06:06:37.138Z,7.11
2022-11-25T06:09:04.303Z,7.16
2022-11-25T06:11:31.376Z,7.16
2022-11-25T06:13:58.837Z,7.20
2022-11-25T06:16:26.370Z,7.19
2022-11-25T06:19:06.899Z,7.19
2022-11-25T06:21:34.263Z,7.19
2022-11-25T06:24:01.544Z,7.21
2022-11-25T06:26:29.973Z,7.20
2022-11-25T06:28:57.208Z,7.19
2022-11-25T06:31:26.764Z,7.22
2022-11-25T06:34:12.744Z,7.22
2022-11-25T06:36:41.358Z,7.21
2022-11-25T06:39:08.688Z,7.23
2022-11-25T06:41:35.691Z,7.21
2022-11-25T06:44:02.570Z,7.21
2022-11-25T06:46:29.631Z,7.23
2022-11-25T06:48:59.383Z,7.23
2022-11-25T06:51:26.580Z,7.23
2022-11-25T06:53:53.688Z,7.24
2022-11-25T06:56:24.812Z,7.25
2022-11-25T06:58:52.884Z,7.26
2022-11-25T07:01:26.304Z,7.24
2022-11-25T07:04:03.285Z,7.21
2022-11-25T07:06:32.158Z,7.20
2022-11-25T07:08:59.078Z,7.21
2022-11-25T07:11:34.498Z,7.22
2022-11-25T07:14:11.868Z,7.20
2022-11-25T07:16:43.675Z,7.22
2022-11-25T07:19:13.590Z,7.23
2022-11-25T07:21:41.705Z,7.26
2022-11-25T07:24:10.589Z,7.27
2022-11-25T07:26:39.587Z,7.32
2022-11-25T07:29:36.453Z,7.37
2022-11-25T07:32:05.685Z,7.41
2022-11-25T07:34:36.282Z,7.43
2022-11-25T07:37:03.543Z,7.46
2022-11-25T07:39:30.511Z,7.49
2022-11-25T07:41:57.464Z,7.51
2022-11-25T07:44:24.439Z,7.54
2022-11-25T07:46:58.780Z,7.52
2022-11-25T07:49:25.915Z,7.54
2022-11-25T07:52:04.447Z,7.56
2022-11-25T07:54:33.078Z,7.58
2022-11-25T07:56:59.964Z,7.58
2022-11-25T07:59:27.205Z,7.59
2022-11-25T08:01:56.736Z,7.59
2022-11-25T08:04:24.207Z,7.64
2022-11-25T08:06:52.942Z,7.66
2022-11-25T08:09:23.952Z,7.71
2022-11-25T08:11:51.733Z,7.74
2022-11-25T08:14:19.253Z,7.76
2022-11-25T08:16:46.519Z,7.80
2022-11-25T08:19:16.634Z,7.85
2022-11-25T08:21:44.630Z,7.86
2022-11-25T08:24:20.370Z,7.90
2022-11-25T08:26:48.703Z,7.89
2022-11-25T08:29:17.969Z,7.95
2022-11-25T08:31:44.972Z,7.97
2022-11-25T08:34:23.349Z,8.03
2022-11-25T08:36:54.228Z,8.05
2022-11-25T08:39:51.114Z,8.11
2022-11-25T08:42:09.397Z,8.14
2022-11-25T08:44:36.719Z,8.13
2022-11-25T08:47:04.018Z,8.20
2022-11-25T08:49:34.959Z,8.19
2022-11-25T08:52:07.264Z,8.22
2022-11-25T08:54:34.184Z,8.27
2022-11-25T08:57:01.140Z,8.30
2022-11-25T08:59:28.032Z,8.31
2022-11-25T09:01:55.607Z,8.34
2022-11-25T09:04:23.036Z,8.35
2022-11-25T09:06:50.120Z,8.36
2022-11-25T09:09:17.373Z,8.40
2022-11-25T09:11:44.574Z,8.39
2022-11-25T09:14:11.641Z,8.42
2022-11-25T09:16:38.917Z,8.45
2022-11-25T09:19:06.656Z,8.48
2022-11-25T09:21:33.610Z,8.54
2022-11-25T09:24:00.623Z,8.56
2022-11-25T09:26:31.205Z,8.59
2022-11-25T09:28:58.386Z,8.62
2022-11-25T09:31:25.460Z,8.63
2022-11-25T09:33:52.621Z,8.69
2022-11-25T09:36:20.673Z,8.71
2022-11-25T09:38:47.947Z,8.72
2022-11-25T09:42:07.232Z,8.76
2022-11-25T09:45:25.643Z,8.79
2022-11-25T09:48:31.020Z,8.79
2022-11-25T09:51:20.692Z,8.81
2022-11-25T09:53:56.951Z,8.84
2022-11-25T09:56:37.651Z,8.83
2022-11-25T09:59:19.088Z,8.86
2022-11-25T10:01:56.052Z,8.90
2022-11-25T10:04:47.404Z,8.89
2022-11-25T10:07:22.824Z,8.91
2022-11-25T10:09:49.816Z,8.87
2022-11-25T10:12:35.203Z,8.89
2022-11-25T10:15:06.576Z,8.96
2022-11-25T10:17:53.369Z,8.98
2022-11-25T10:20:35.689Z,9.00
2022-11-25T10:23:28.518Z,9.09
2022-11-25T10:26:01.437Z,9.12
2022-11-25T10:28:34.252Z,9.17
2022-11-25T10:31:17.357Z,9.19
2022-11-25T10:33:54.431Z,9.24
2022-11-25T10:36:31.232Z,9.30
2022-11-25T10:39:17.931Z,9.34
2022-11-25T10:41:59.545Z,9.40
2022-11-25T10:44:35.830Z,9.46
2022-11-25T10:47:27.172Z,9.49
2022-11-25T10:50:00.980Z,9.51
2022-11-25T10:52:35.065Z,9.55
2022-11-25T10:55:33.235Z,9.68
2022-11-25T10:58:31.278Z,9.76
2022-11-25T11:01:17.562Z,9.86
2022-11-25T11:03:54.840Z,9.90
2022-11-25T11:06:50.306Z,9.98
2022-11-25T11:09:35.670Z,10.00
2022-11-25T11:12:27.827Z,9.98
2022-11-25T11:15:25.862Z,9.94
2022-11-25T11:17:55.579Z,9.94
2022-11-25T11:20:29.342Z,9.97
2022-11-25T11:23:09.257Z,10.02
2022-11-25T11:25:42.657Z,10.05
2022-11-25T11:28:35.201Z,10.09
2022-11-25T11:31:24.369Z,10.13
2022-11-25T11:34:36.961Z,10.11
2022-11-25T11:37:29.696Z,10.17
2022-11-25T11:40:31.323Z,10.20
2022-11-25T11:43:22.986Z,10.29
2022-11-25T11:46:24.482Z,10.37
2022-11-25T11:49:30.269Z,10.47
2022-11-25T11:52:51.606Z,10.57
2022-11-25T11:56:18.867Z,10.59
2022-11-25T11:58:59.562Z,10.68
2022-11-25T12:01:51.199Z,10.84
2022-11-25T12:04:38.041Z,10.92
2022-11-25T12:07:38.838Z,11.21
2022-11-25T12:10:14.750Z,11.30
2022-11-25T12:13:06.357Z,11.30
2022-11-25T12:16:08.003Z,11.25
2022-11-25T12:18:43.812Z,11.20
2022-11-25T12:21:22.972Z,11.10
2022-11-25T12:24:25.223Z,11.10
2022-11-25T12:27:07.929Z,11.13
2022-11-25T12:30:18.230Z,11.14
2022-11-25T12:32:53.469Z,11.15
2022-11-25T12:35:46.058Z,11.25
2022-11-25T12:38:57.394Z,11.46
2022-11-25T12:41:45.729Z,11.66
2022-11-25T12:44:31.035Z,11.84
2022-11-25T12:46:58.781Z,11.98
2022-11-25T12:49:33.326Z,12.10
2022-11-25T12:52:41.151Z,12.22
2022-11-25T12:55:26.145Z,12.25
2022-11-25T12:58:30.003Z,12.37
2022-11-25T13:01:37.421Z,12.41
2022-11-25T13:04:36.537Z,12.42
2022-11-25T13:07:17.885Z,12.37
2022-11-25T13:10:11.332Z,12.29
2022-11-25T13:12:51.177Z,12.25
2022-11-25T13:15:24.556Z,12.18
2022-11-25T13:17:57.941Z,12.13
2022-11-25T13:20:27.748Z,12.09
2022-11-25T13:23:05.290Z,12.13
2022-11-25T13:25:33.228Z,12.25
2022-11-25T13:28:03.323Z,12.35
2022-11-25T13:30:32.994Z,12.41
2022-11-25T13:33:12.094Z,12.38
2022-11-25T13:35:54.408Z,12.35
2022-11-25T13:38:30.313Z,12.30
2022-11-25T13:41:33.136Z,12.28
2022-11-25T13:44:22.105Z,12.25
2022-11-25T13:46:55.339Z,12.25
2022-11-25T13:49:42.639Z,12.26
2022-11-25T13:52:12.394Z,12.22
2022-11-25T13:55:01.060Z,12.16
2022-11-25T13:57:34.902Z,12.13
2022-11-25T14:00:33.869Z,12.18
2022-11-25T14:03:19.241Z,12.22
2022-11-25T14:06:05.143Z,12.27
2022-11-25T14:08:56.385Z,12.32
2022-11-25T14:11:39.837Z,12.37
2022-11-25T14:14:33.229Z,12.39
2022-11-25T14:17:40.394Z,12.41
2022-11-25T14:20:28.383Z,12.37
2022-11-25T14:23:25.725Z,12.32
2022-11-25T14:25:57.920Z,12.27
2022-11-25T14:28:43.641Z,12.27
2022-11-25T14:31:16.270Z,12.27
2022-11-25T14:33:56.082Z,12.24
2022-11-25T14:36:29.649Z,12.15
2022-11-25T14:39:06.173Z,12.11
2022-11-25T14:42:01.780Z,12.04
2022-11-25T14:45:01.004Z,11.93
2022-11-25T14:47:38.603Z,11.83
2022-11-25T14:53:08.210Z,11.66
2022-11-25T14:55:36.866Z,11.62
2022-11-25T14:58:04.187Z,11.56
2022-11-25T15:00:31.317Z,11.51
2022-11-25T15:03:02.471Z,11.46
2022-11-25T15:05:40.948Z,11.42
2022-11-25T15:08:15.897Z,11.39
2022-11-25T15:10:56.953Z,11.33
2022-11-25T15:13:37.680Z,11.27
2022-11-25T15:16:17.271Z,11.23
2022-11-25T15:18:56.306Z,11.16
2022-11-25T15:22:00.013Z,11.12
2022-11-25T15:24:42.146Z,11.06
2022-11-25T15:27:28.553Z,11.06
2022-11-25T15:29:57.249Z,11.00
2022-11-25T15:32:33.300Z,10.98
2022-11-25T15:35:01.781Z,10.95
2022-11-25T15:37:29.146Z,10.96
2022-11-25T15:40:36.832Z,10.97
2022-11-25T15:43:08.004Z,10.96
2022-11-25T15:45:44.753Z,10.92
2022-11-25T15:48:39.035Z,10.88
2022-11-25T15:51:41.490Z,10.88
2022-11-25T15:54:25.822Z,10.88
2022-11-25T15:57:15.614Z,10.85
2022-11-25T15:59:52.989Z,10.83
2022-11-25T16:02:41.631Z,10.82
2022-11-25T16:05:27.675Z,10.82
2022-11-25T16:07:57.244Z,10.81
2022-11-25T16:10:36.116Z,10.79
2022-11-25T16:13:23.134Z,10.78
2022-11-25T16:16:17.614Z,10.77
2022-11-25T16:19:10.041Z,10.78
2022-11-25T16:21:36.836Z,10.78
2022-11-25T16:24:06.650Z,10.78
2022-11-25T16:26:54.354Z,10.78
2022-11-25T16:29:48.141Z,10.78
2022-11-25T16:32:21.438Z,10.78
2022-11-25T16:34:48.757Z,10.79
2022-11-25T16:37:15.831Z,10.77
2022-11-25T16:39:42.816Z,10.76
2022-11-25T16:42:21.819Z,10.72
2022-11-25T16:44:52.080Z,10.73
2022-11-25T16:47:21.914Z,10.67
2022-11-25T16:49:49.066Z,10.64
2022-11-25T16:52:17.125Z,10.63
2022-11-25T16:54:44.065Z,10.63
2022-11-25T16:57:19.509Z,10.60
2022-11-25T16:59:51.115Z,10.62
2022-11-25T17:02:22.900Z,10.59
2022-11-25T17:04:49.853Z,10.56
2022-11-25T17:07:32.834Z,10.55
2022-11-25T17:10:00.678Z,10.52
2022-11-25T17:12:31.853Z,10.49
2022-11-25T17:15:00.068Z,10.48
2022-11-25T17:17:28.210Z,10.47
2022-11-25T17:19:55.352Z,10.46
2022-11-25T17:22:26.555Z,10.47
2022-11-25T17:24:54.160Z,10.46
2022-11-25T17:27:28.996Z,10.41
2022-11-25T17:29:58.868Z,10.44
2022-11-25T17:32:26.340Z,10.45
2022-11-25T17:34:53.417Z,10.42
2022-11-25T17:37:23.677Z,10.42
2022-11-25T17:39:55.292Z,10.41
2022-11-25T17:42:30.575Z,10.35
2022-11-25T17:44:57.853Z,10.35
2022-11-25T17:47:24.836Z,10.35
2022-11-25T17:49:52.044Z,10.33
2022-11-25T17:52:19.133Z,10.32
2022-11-25T17:54:46.083Z,10.31
2022-11-25T17:57:20.284Z,10.32
2022-11-25T17:59:47.700Z,10.31
2022-11-25T18:02:22.339Z,10.30
2022-11-25T18:04:50.142Z,10.30
2022-11-25T18:07:17.995Z,10.30
2022-11-25T18:09:45.514Z,10.28
2022-11-25T18:12:24.759Z,10.24
2022-11-25T18:14:52.000Z,10.26
2022-11-25T18:17:19.574Z,10.27
2022-11-25T18:19:52.919Z,10.23
2022-11-25T18:22:23.587Z,10.21
2022-11-25T18:24:50.556Z,10.17
2022-11-25T18:27:28.808Z,10.16
2022-11-25T18:29:57.113Z,10.16
2022-11-25T18:32:25.284Z,10.14
2022-11-25T18:34:52.486Z,10.13
2022-11-25T18:37:19.366Z,10.11
2022-11-25T18:39:46.496Z,10.10
2022-11-25T18:42:27.345Z,10.09
2022-11-25T18:44:55.910Z,10.08
2022-11-25T18:47:23.129Z,10.02
2022-11-25T18:49:55.375Z,9.98
2022-11-25T18:52:24.345Z,9.93
2022-11-25T18:54:51.341Z,9.89
2022-11-25T18:57:18.377Z,9.82
2022-11-25T18:59:48.068Z,9.80
2022-11-25T19:02:23.231Z,9.75
2022-11-25T19:04:50.255Z,9.72
2022-11-25T19:07:17.352Z,9.68
2022-11-25T19:09:44.309Z,9.70
2022-11-25T19:12:19.300Z,9.83
2022-11-25T19:14:48.042Z,9.86
2022-11-25T19:17:21.265Z,9.78
2022-11-25T19:19:48.442Z,9.70
2022-11-25T19:22:17.615Z,9.63
2022-11-25T19:24:46.016Z,9.54
2022-11-25T19:27:26.444Z,9.49
2022-11-25T19:29:53.589Z,9.41
2022-11-25T19:32:26.714Z,9.36
2022-11-25T19:34:59.618Z,9.29
2022-11-25T19:37:30.104Z,9.24
2022-11-25T19:39:57.256Z,9.21
2022-11-25T19:42:31.538Z,9.20
2022-11-25T19:44:58.501Z,9.18
2022-11-25T19:47:26.953Z,9.15
2022-11-25T19:49:58.655Z,9.14
2022-11-25T19:52:35.817Z,9.10
2022-11-25T19:55:14.715Z,9.05
2022-11-25T19:57:42.204Z,9.04
2022-11-25T20:00:11.058Z,8.99
2022-11-25T20:02:39.426Z,9.00
2022-11-25T20:05:08.768Z,8.96
2022-11-25T20:07:36.344Z,8.92
2022-11-25T20:10:18.775Z,8.92
2022-11-25T20:12:46.378Z,8.88
2022-11-25T20:15:14.010Z,8.85
2022-11-25T20:17:44.765Z,8.88
2022-11-25T20:20:25.639Z,8.89
2022-11-25T20:23:16.443Z,8.92
2022-11-25T20:25:47.142Z,8.94
2022-11-25T20:28:23.918Z,8.93
2022-11-25T20:30:52.709Z,8.93
2022-11-25T20:33:24.281Z,8.94
2022-11-25T20:36:03.872Z,8.91
2022-11-25T20:38:33.017Z,8.90
2022-11-25T20:41:01.075Z,8.89
2022-11-25T20:43:38.937Z,8.92
2022-11-25T20:46:12.127Z,8.96
2022-11-25T20:48:39.177Z,8.93
2022-11-25T20:51:21.697Z,8.94
2022-11-25T20:54:05.194Z,8.92
2022-11-25T20:56:32.090Z,8.88
2022-11-25T20:58:58.969Z,8.87
2022-11-25T21:01:26.176Z,8.88
2022-11-25T21:03:53.260Z,8.85
2022-11-25T21:06:29.475Z,8.85
2022-11-25T21:08:59.256Z,8.82
2022-11-25T21:11:27.775Z,8.81
2022-11-25T21:13:55.205Z,8.81
2022-11-25T21:16:22.145Z,8.80
2022-11-25T21:18:49.141Z,8.77
2022-11-25T21:21:30.503Z,8.77
2022-11-25T21:23:57.869Z,8.72
2022-11-25T21:26:26.730Z,8.72
2022-11-25T21:28:54.751Z,8.66
2022-11-25T21:31:24.676Z,8.64
2022-11-25T21:33:56.694Z,8.59
2022-11-25T21:36:28.869Z,8.57
2022-11-25T21:39:12.130Z,8.54
2022-11-25T21:41:39.108Z,8.52
2022-11-25T21:44:07.675Z,8.50
2022-11-25T21:46:34.705Z,8.47
2022-11-25T21:49:01.839Z,8.46
2022-11-25T21:51:28.805Z,8.43
2022-11-25T21:53:55.811Z,8.41
2022-11-25T21:56:34.540Z,8.38
2022-11-25T21:59:04.664Z,8.36
2022-11-25T22:01:32.420Z,8.31
2022-11-25T22:03:59.536Z,8.25
2022-11-25T22:06:31.818Z,8.27
2022-11-25T22:08:58.781Z,8.24
2022-11-25T22:11:39.059Z,8.21
2022-11-25T22:14:28.643Z,8.11
2022-11-25T22:16:56.905Z,8.08
2022-11-25T22:19:26.611Z,8.04
2022-11-25T22:21:54.071Z,8.02
2022-11-25T22:24:21.794Z,8.03
2022-11-25T22:26:57.183Z,7.99
2022-11-25T22:29:33.241Z,7.93
2022-11-25T22:32:00.285Z,7.90
2022-11-25T22:34:27.248Z,7.88
2022-11-25T22:36:54.183Z,7.85
2022-11-25T22:39:24.813Z,7.79
2022-11-25T22:42:09.274Z,7.77
2022-11-25T22:44:40.174Z,7.70
2022-11-25T22:47:14.324Z,7.68
2022-11-25T22:49:46.565Z,7.64
2022-11-25T22:52:22.072Z,7.63
2022-11-25T22:54:49.592Z,7.58
2022-11-25T22:57:17.898Z,7.58
2022-11-25T22:59:45.037Z,7.55
2022-11-25T23:02:21.930Z,7.55
2022-11-25T23:04:54.953Z,7.54
2022-11-25T23:07:23.568Z,7.55
2022-11-25T23:09:51.070Z,7.67
2022-11-25T23:12:19.028Z,8.11
2022-11-25T23:14:46.597Z,8.26
2022-11-25T23:17:24.970Z,8.16
2022-11-25T23:19:52.384Z,8.04
2022-11-25T23:22:20.027Z,7.89
2022-11-25T23:24:48.962Z,7.80
2022-11-25T23:27:16.138Z,7.68
2022-11-25T23:29:43.208Z,7.61
2022-11-25T23:32:19.191Z,7.51
2022-11-25T23:34:49.361Z,7.44
2022-11-25T23:37:16.348Z,7.36
2022-11-25T23:39:46.099Z,7.34
2022-11-25T23:42:18.449Z,7.30
2022-11-25T23:44:45.740Z,7.25
2022-11-25T23:47:23.053Z,7.27
2022-11-25T23:49:52.128Z,7.28
2022-11-25T23:52:24.738Z,7.25
2022-11-25T23:54:53.218Z,7.22
2022-11-25T23:57:38.181Z,7.21
